Main page
METAR-TAF:

METAR-TAF

Airports :

Bassatine Air Base

Meknes, Morocco

latitude: 33-53N, longitude: 005-32W, elevation: 576 m

Current weather observation

The report was made 36 minutes ago, at 10:00 UTC
Wind 7 kt from the East
Temperature 12°C
Humidity 82%
Pressure 1020 hPa
Visibility: 8000 m

METAR: GMFM 201000Z 09007KT 8000 NSC 12/09 Q1020 NOSIG

Time: 10:36 (10:36 UTC)

Forecast

The report was made 5 hours and 36 minutes ago, at 05:00 UTC
Forecast valid from 20 at 06 UTC to 21 at 12 UTC
Wind 6 kt from the Southeast
Visibility 10 km or more
no clouds below 1500 m and no cumulonimbus
Temporary
from 20 at 11 UTC to 20 at 19 UTC
Wind 8 kt from the North/Northwest
Visibility 10 km or more
Scattered clouds at a height of 2000 ft
Probability 40% :
Temporary
from 21 at 04 UTC to 21 at 10 UTC
Visibility: 3000 m
Scattered clouds at a height of 1000 ft
mist

TAF: GMFM 200500Z 2006/2112 14006KT CAVOK TEMPO 2011/2019 34008KT 9999 SCT020 PROB40 TEMPO 2104/2110 3000 BR SCT010

Weather observations and forecasts of more than 4000 airports (METAR and TAF reports).

The available stations are represented by yellow and red dots on the map.

Hover mouse over dot to see the name of the station.

Then click to see weather observations and forecasts.

To change the map : click on the green buttons with a black cross to zoom in, on the green button with a dash to zoom out, or on the green arrows for adjacent maps.


METAR-TAF: